Aviation Digital Data Service (ADDS)

Output produced by METARs form (0243 UTC 22 July 2017)
found at http://www.aviationweather.gov/adds/metars/
 
RKSG 220158Z AUTO 27004KT 4SM BR SCT017 OVC180 29/27 A2984 RMK AO2A SLP105 T02930270 $
TAF RKSG 212000Z 2120/2302 VRB06KT 6000 BR BKN040 QNH2975INS 
     BECMG 2123/2124 VRB06KT 6000 HZ BKN040 QNH2975INS 
     TEMPO 2204/2210 4800 -SHRA BKN030 
     BECMG 2213/2214 VRB03KT 4800 BR BKN030 QNH2973INS 
     BECMG 2222/2223 VRB06KT 6000 HZ BKN040 QNH2973INS TX34/2206Z TN25/2220Z
       
RKTU 220200Z 25004KT 6000 SCT015 BKN200 30/27 Q1010 NOSIG
TAF RKTU 212300Z 2200/2306 24006KT 4800 BR SCT030 BKN200 TX33/2206Z TN24/2221Z 
     BECMG 2203/2204 9999 NSW BKN030
       
RKTN 220200Z 02001KT 9999 FEW050 BKN200 33/24 Q1009 NOSIG
TAF RKTN 212300Z 2200/2306 27006KT 9999 SCT030 BKN200 TX36/2206Z TN26/2221Z 
     BECMG 2204/2205 BKN030 BKN200
       
RKPK 220200Z 25003KT 9999 FEW030 BKN200 34/23 Q1010 NOSIG
TAF RKPK 212300Z 2200/2306 33006KT 9999 SCT030 BKN200 TX34/2206Z TN26/2221Z 
     BECMG 2201/2202 19008KT 
     TEMPO 2206/2214 21006KT 4800 -RA BR OVC030
       
RKSS 220200Z 19007KT 7000 FEW015 BKN025 OVC120 30/24 Q1010 NOSIG
TAF RKSS 212300Z 2200/2306 21006KT 4200 BR FEW010 BKN025 OVC180 TX31/2204Z TN25/2220Z TX30/2305Z 
     BECMG 2201/2202 7000 NSW SCT030 
     TEMPO 2206/2208 27007KT -RA BKN025 
     BECMG 2212/2213 4200 BR FEW010 BKN025 OVC080 
     TEMPO 2217/2221 2800 -RA 
     TEMPO 2302/2306 27007KT -RA
       
RKSI 220230Z 19011KT 6000 SCT004 BKN030 28/24 Q1009 NOSIG
TAF RKSI 212300Z 2200/2306 19007KT 4200 BR FEW005 SCT020 BKN200 TX30/2206Z TN25/2220Z TX29/2305Z 
     BECMG 2202/2203 22007KT 6000 NSW 
     BECMG 2213/2214 19006KT 3500 BR FEW004 BKN020 OVC100 
     TEMPO 2216/2220 2800 -RA 
     BECMG 2220/2221 2500 
     BECMG 2300/2301 23009KT 7000 NSW
       
RKPC 220200Z 33005KT 290V010 CAVOK 31/24 Q1011 NOSIG
TAF RKPC 212300Z 2200/2306 07005KT 9999 FEW030 TX34/2206Z TN27/2220Z TX33/2306Z 
     BECMG 2201/2202 28012KT 
     BECMG 2212/2213 21006KT 
     BECMG 2301/2302 28010KT
       
RKJK 220158Z AUTO 22008KT 9SM FEW110 SCT140 BKN180 30/26 A2985 RMK AO2 SLP112 T02950255 $
TAF RKJK 212300Z 2123/2305 VRB06KT 4800 BR FEW160 QNH2979INS 
     BECMG 2200/2201 VRB06KT 6000 HZ FEW160 QNH2976INS 
     BECMG 2215/2216 VRB06KT 4800 BR SCT160 QNH2973INS TX32/2203Z TN25/2218Z
       
RKSO 220155Z 20003KT 2 3/4SM HZ FEW014 SCT065 BKN200 30/24 A2985 RMK AO2A SLPNO WND DATA ESTMD ALSTG ESTMD $
TAF AMD RKSO 212200Z 2122/2301 VRB06KT 4000 BR SCT040 BKN220 QNH2975INS 
     TEMPO 2204/2209 4800 -SHRA BKN040 
     BECMG 2213/2214 VRB03KT 4800 BR OVC030 QNH2973INS 
     BECMG 2222/2223 VRB06KT 6000 HZ BKN030 QNH2973INS TX34/2206Z TN25/2221Z
       
TAF COR RKTP 212300Z 2200/2306 21008KT 0800 FG BKN002 
     FM220100 21008KT 1600 BR BKN005 
     BECMG 2202/2203 21008KT 4800 BR BKN030 
     BECMG 2204/2205 21008KT 8000 BR SCT030 BKN200 
     BECMG 2212/2213 21006KT 4800 BR SCT030 
     BECMG 2215/2216 21006KT 1600 BR BKN005 
     BECMG 2300/2301 21008KT 4800 BR BKN010 
     BECMG 2302/2303 21008KT 8000 BR BKN030 TX31/2206Z TN26/2221Z
       
RKSM 220200Z 20005KT 4800 BR FEW015 BKN030 BKN200 29/26 A2985 RMK CIG030 SLP104 8/608 9/502
TAF RKSM 212300Z 2200/2306 21006KT 4000 BR BKN030 BKN200 
     BECMG 2201/2202 21006KT 4800 BR BKN030 BKN200 TX32/2206Z TN26/2221Z
       
RKNY 220200Z 27001KT 5000 -RA BR FEW010 BKN030 OVC100 23/21 Q1012 BECMG BR
TAF RKNY 212300Z 2200/2306 36006KT 4200 -RA FEW005 BKN025 OVC080 TX23/2205Z TN21/2223Z TX25/2305Z 
     BECMG 2202/2203 03006KT 6000 NSW 
     TEMPO 2206/2212 36006KT 4200 -RA 
     BECMG 2217/2218 33005KT 4200 -RA 
     BECMG 2300/2301 03006KT 6000 NSW 
     BECMG 2305/2306 09007KT